createdAt,value
2022-12-08T00:00:00.566Z,99015.81
2022-12-08T00:02:27.015Z,99008.31
2022-12-08T00:05:12.217Z,99009.94
2022-12-08T00:07:57.644Z,99005.97
2022-12-08T00:10:48.534Z,99000.69
2022-12-08T00:13:10.646Z,98994.28
2022-12-08T00:15:37.058Z,98988.53
2022-12-08T00:18:03.433Z,98993.72
2022-12-08T00:20:29.882Z,98986.31
2022-12-08T00:22:56.681Z,98982.41
2022-12-08T00:25:23.091Z,98982.06
2022-12-08T00:27:49.499Z,98986.03
2022-12-08T00:30:15.964Z,98979.31
2022-12-08T00:32:42.355Z,98978.13
2022-12-08T00:35:08.971Z,98966.28
2022-12-08T00:37:35.619Z,98978.38
2022-12-08T00:40:02.515Z,98968.44
2022-12-08T00:42:29.157Z,98969.47
2022-12-08T00:44:55.609Z,98962.22
2022-12-08T00:47:24.804Z,98969.28
2022-12-08T00:49:51.925Z,98968.53
2022-12-08T00:52:18.425Z,98967.09
2022-12-08T00:54:44.885Z,98966.53
2022-12-08T00:57:11.555Z,98966.22
2022-12-08T00:59:37.951Z,98959.34
2022-12-08T01:02:04.442Z,98964.75
2022-12-08T01:04:30.829Z,98960.97
2022-12-08T01:06:57.282Z,98957.06
2022-12-08T01:09:23.714Z,98952.00
2022-12-08T01:11:50.350Z,98955.56
2022-12-08T01:14:16.734Z,98948.63
2022-12-08T01:16:43.522Z,98947.44
2022-12-08T01:19:12.042Z,98941.22
2022-12-08T01:21:39.458Z,98942.13
2022-12-08T01:24:06.377Z,98948.44
2022-12-08T01:26:32.759Z,98937.88
2022-12-08T01:28:59.170Z,98933.19
2022-12-08T01:31:25.577Z,98928.97
2022-12-08T01:33:52.063Z,98943.50
2022-12-08T01:36:27.198Z,98943.03
2022-12-08T01:38:54.180Z,98939.72
2022-12-08T01:41:26.452Z,98942.34
2022-12-08T01:43:56.046Z,98934.84
2022-12-08T01:46:23.162Z,98936.63
2022-12-08T01:48:51.838Z,98930.19
2022-12-08T01:51:18.376Z,98932.53
2022-12-08T01:53:44.757Z,98932.16
2022-12-08T01:56:16.617Z,98937.19
2022-12-08T01:58:46.818Z,98929.09
2022-12-08T02:01:13.408Z,98925.78
2022-12-08T02:03:50.276Z,98922.16
2022-12-08T02:06:17.777Z,98920.50
2022-12-08T02:08:44.647Z,98917.84
2022-12-08T02:11:12.331Z,98918.06
2022-12-08T02:13:39.679Z,98914.03
2022-12-08T02:16:26.246Z,98914.66
2022-12-08T02:19:29.819Z,98916.50
2022-12-08T02:21:56.771Z,98911.31
2022-12-08T02:24:38.756Z,98910.88
2022-12-08T02:27:23.960Z,98908.78
2022-12-08T02:30:02.763Z,98914.50
2022-12-08T02:32:29.474Z,98907.31
2022-12-08T02:34:58.628Z,98909.88
2022-12-08T02:37:40.964Z,98910.75
2022-12-08T02:40:22.857Z,98903.31
2022-12-08T02:42:55.466Z,98898.63
2022-12-08T02:45:25.570Z,98889.63
2022-12-08T02:47:52.530Z,98890.75
2022-12-08T02:50:19.197Z,98892.25
2022-12-08T02:52:46.972Z,98889.16
2022-12-08T02:55:30.263Z,98882.75
2022-12-08T02:58:03.986Z,98877.91
2022-12-08T03:00:38.733Z,98875.25
2022-12-08T03:03:19.739Z,98870.84
2022-12-08T03:06:01.355Z,98875.94
2022-12-08T03:08:51.745Z,98876.13
2022-12-08T03:11:38.793Z,98870.59
2022-12-08T03:14:06.840Z,98868.16
2022-12-08T03:16:37.187Z,98867.06
2022-12-08T03:19:09.691Z,98865.91
2022-12-08T03:21:37.431Z,98851.38
2022-12-08T03:24:07.684Z,98854.69
2022-12-08T03:26:38.871Z,98849.28
2022-12-08T03:29:05.402Z,98847.44
2022-12-08T03:31:34.239Z,98847.63
2022-12-08T03:34:01.491Z,98842.72
2022-12-08T03:36:28.274Z,98840.59
2022-12-08T03:38:54.777Z,98835.31
2022-12-08T03:41:22.171Z,98823.34
2022-12-08T03:43:52.700Z,98824.03
2022-12-08T03:48:47.645Z,98821.47
2022-12-08T03:51:14.860Z,98823.91
2022-12-08T03:53:41.468Z,98815.63
2022-12-08T03:56:23.425Z,98817.56
2022-12-08T03:58:49.849Z,98813.19
2022-12-08T04:01:16.302Z,98815.03
2022-12-08T04:03:42.854Z,98802.72
2022-12-08T04:06:09.388Z,98809.94
2022-12-08T04:08:35.821Z,98807.53
2022-12-08T04:11:02.337Z,98802.06
2022-12-08T04:13:28.923Z,98798.25
2022-12-08T04:15:55.364Z,98797.25
2022-12-08T04:18:22.923Z,98789.34
2022-12-08T04:20:49.306Z,98794.72
2022-12-08T04:23:15.688Z,98795.53
2022-12-08T04:25:42.424Z,98799.31
2022-12-08T04:28:08.835Z,98794.94
2022-12-08T04:30:35.293Z,98794.63
2022-12-08T04:33:01.715Z,98795.53
2022-12-08T04:35:28.130Z,98799.50
2022-12-08T04:37:54.540Z,98789.56
2022-12-08T04:40:20.975Z,98795.31
2022-12-08T04:42:47.680Z,98787.00
2022-12-08T04:45:14.126Z,98790.25
2022-12-08T04:47:40.621Z,98789.06
2022-12-08T04:50:08.156Z,98792.19
2022-12-08T04:52:34.772Z,98785.19
2022-12-08T04:55:01.321Z,98788.88
2022-12-08T04:57:27.779Z,98788.50
2022-12-08T04:59:54.203Z,98786.84
2022-12-08T05:02:20.702Z,98785.56
2022-12-08T05:04:47.192Z,98785.56
2022-12-08T05:07:13.604Z,98786.72
2022-12-08T05:09:40.118Z,98789.88
2022-12-08T05:12:06.706Z,98785.00
2022-12-08T05:14:33.189Z,98789.88
2022-12-08T05:17:01.676Z,98788.50
2022-12-08T05:19:31.327Z,98787.53
2022-12-08T05:21:57.735Z,98781.88
2022-12-08T05:24:24.129Z,98787.22
2022-12-08T05:26:50.510Z,98778.84
2022-12-08T05:29:16.916Z,98776.38
2022-12-08T05:31:43.339Z,98774.44
2022-12-08T05:34:09.783Z,98766.72
2022-12-08T05:36:36.188Z,98767.22
2022-12-08T05:39:02.963Z,98763.41
2022-12-08T05:41:29.413Z,98764.66
2022-12-08T05:43:55.789Z,98774.63
2022-12-08T05:46:22.253Z,98765.56
2022-12-08T05:48:48.748Z,98768.66
2022-12-08T05:51:18.209Z,98772.66
2022-12-08T05:53:44.605Z,98769.38
2022-12-08T05:56:12.291Z,98773.25
2022-12-08T05:58:38.797Z,98768.94
2022-12-08T06:01:05.350Z,98763.28
2022-12-08T06:03:31.831Z,98766.03
2022-12-08T06:05:58.293Z,98769.75
2022-12-08T06:08:24.812Z,98767.97
2022-12-08T06:10:51.278Z,98766.03
2022-12-08T06:13:17.675Z,98766.91
2022-12-08T06:15:44.229Z,98767.09
2022-12-08T06:18:10.852Z,98766.22
2022-12-08T06:20:37.270Z,98764.66
2022-12-08T06:23:03.669Z,98772.38
2022-12-08T06:25:30.170Z,98763.78
2022-12-08T06:27:56.551Z,98766.22
2022-12-08T06:30:22.975Z,98766.41
2022-12-08T06:32:49.392Z,98767.41
2022-12-08T06:35:15.786Z,98766.72
2022-12-08T06:37:42.229Z,98768.28
2022-12-08T06:40:09.020Z,98766.69
2022-12-08T06:42:44.509Z,98765.63
2022-12-08T06:45:12.902Z,98763.28
2022-12-08T06:47:39.379Z,98766.31
2022-12-08T06:50:07.771Z,98760.16
2022-12-08T06:52:37.707Z,98763.59
2022-12-08T06:55:08.309Z,98761.63
2022-12-08T06:57:35.217Z,98766.22
2022-12-08T07:00:01.948Z,98766.03
2022-12-08T07:02:28.638Z,98770.72
2022-12-08T07:04:55.150Z,98776.75
2022-12-08T07:07:21.923Z,98762.50
2022-12-08T07:09:48.451Z,98764.88
2022-12-08T07:12:14.822Z,98763.78
2022-12-08T07:14:41.213Z,98760.16
2022-12-08T07:17:07.891Z,98757.06
2022-12-08T07:19:34.350Z,98763.47
2022-12-08T07:22:00.738Z,98763.47
2022-12-08T07:24:27.246Z,98765.25
2022-12-08T07:26:53.604Z,98767.97
2022-12-08T07:29:24.702Z,98766.41
2022-12-08T07:31:52.722Z,98764.66
2022-12-08T07:34:19.150Z,98758.09
2022-12-08T07:36:45.532Z,98763.28
2022-12-08T07:39:11.947Z,98763.97
2022-12-08T07:41:38.348Z,98767.28
2022-12-08T07:44:04.838Z,98762.50
2022-12-08T07:46:31.326Z,98767.66
2022-12-08T07:48:57.815Z,98763.28
2022-12-08T07:51:25.079Z,98764.84
2022-12-08T07:53:54.169Z,98756.25
2022-12-08T07:56:21.799Z,98757.31
2022-12-08T07:58:48.187Z,98762.69
2022-12-08T08:01:27.251Z,98762.88
2022-12-08T08:03:55.831Z,98764.91
2022-12-08T08:06:22.275Z,98769.88
2022-12-08T08:08:48.729Z,98772.91
2022-12-08T08:11:20.922Z,98765.13
2022-12-08T08:13:48.310Z,98765.09
2022-12-08T08:16:14.840Z,98763.84
2022-12-08T08:18:50.788Z,98762.97
2022-12-08T08:24:06.033Z,98769.31
2022-12-08T08:26:32.532Z,98769.31
2022-12-08T08:28:58.983Z,98765.81
2022-12-08T08:31:26.786Z,98767.84
2022-12-08T08:33:53.875Z,98768.72
2022-12-08T08:36:21.989Z,98772.16
2022-12-08T08:38:48.512Z,98773.59
2022-12-08T08:41:14.958Z,98768.22
2022-12-08T08:43:41.450Z,98770.88
2022-12-08T08:46:11.015Z,98771.34
2022-12-08T08:48:37.772Z,98764.81
2022-12-08T08:51:09.459Z,98768.81
2022-12-08T08:53:36.155Z,98758.75
2022-12-08T08:56:05.070Z,98758.19
2022-12-08T08:58:31.526Z,98756.81
2022-12-08T09:00:57.933Z,98757.13
2022-12-08T09:03:24.341Z,98758.09
2022-12-08T09:05:51.407Z,98757.00
2022-12-08T09:08:18.154Z,98768.84
2022-12-08T09:10:44.683Z,98755.28
2022-12-08T09:13:11.099Z,98748.25
2022-12-08T09:15:37.601Z,98750.00
2022-12-08T09:18:06.623Z,98750.09
2022-12-08T09:20:34.150Z,98740.72
2022-12-08T09:23:00.633Z,98744.03
2022-12-08T09:25:28.287Z,98748.03
2022-12-08T09:27:54.774Z,98746.47
2022-12-08T09:30:21.200Z,98745.50
2022-12-08T09:32:47.756Z,98743.53
2022-12-08T09:35:14.212Z,98749.22
2022-12-08T09:37:40.631Z,98746.69
2022-12-08T09:40:08.207Z,98747.34
2022-12-08T09:42:53.626Z,98754.91
2022-12-08T09:45:21.271Z,98743.53
2022-12-08T09:47:48.850Z,98745.88
2022-12-08T09:50:34.936Z,98747.47
2022-12-08T09:53:16.983Z,98733.50
2022-12-08T09:55:50.483Z,98733.69
2022-12-08T09:58:27.834Z,98737.22
2022-12-08T10:00:54.281Z,98732.72
2022-12-08T10:03:22.748Z,98741.22
2022-12-08T10:05:56.061Z,98735.16
2022-12-08T10:08:30.101Z,98724.72
2022-12-08T10:11:00.243Z,98716.59
2022-12-08T10:13:33.170Z,98719.31
2022-12-08T10:16:02.605Z,98726.28
2022-12-08T10:18:31.212Z,98719.72
2022-12-08T10:21:05.301Z,98718.66
2022-12-08T10:23:35.813Z,98716.28
2022-12-08T10:26:03.940Z,98706.22
2022-12-08T10:28:31.512Z,98706.22
2022-12-08T10:30:57.932Z,98708.06
2022-12-08T10:33:24.464Z,98694.09
2022-12-08T10:35:53.444Z,98702.19
2022-12-08T10:38:26.902Z,98700.72
2022-12-08T10:41:07.317Z,98704.25
2022-12-08T10:43:34.705Z,98695.06
2022-12-08T10:46:12.115Z,98705.09
2022-12-08T10:48:47.806Z,98693.88
2022-12-08T10:51:30.995Z,98697.78
2022-12-08T10:53:57.671Z,98689.59
2022-12-08T10:56:29.925Z,98688.59
2022-12-08T10:59:07.284Z,98688.69
2022-12-08T11:01:37.091Z,98677.44
2022-12-08T11:04:05.795Z,98677.25
2022-12-08T11:06:35.261Z,98673.13
2022-12-08T11:09:05.110Z,98672.38
2022-12-08T11:11:50.919Z,98663.38
2022-12-08T11:15:00.974Z,98661.31
2022-12-08T11:17:29.388Z,98655.34
2022-12-08T11:20:02.067Z,98659.75
2022-12-08T11:22:43.662Z,98652.41
2022-12-08T11:25:13.231Z,98648.13
2022-12-08T11:27:48.363Z,98648.28
2022-12-08T11:30:21.952Z,98644.94
2022-12-08T11:32:57.733Z,98645.19
2022-12-08T11:35:30.155Z,98645.75
2022-12-08T11:38:08.096Z,98644.28
2022-12-08T11:40:45.223Z,98640.66
2022-12-08T11:43:19.337Z,98634.88
2022-12-08T11:45:47.231Z,98632.22
2022-12-08T11:48:16.650Z,98628.00
2022-12-08T11:51:04.960Z,98623.38
2022-12-08T11:53:49.815Z,98623.84
2022-12-08T11:56:22.743Z,98616.31
2022-12-08T11:58:56.419Z,98611.91
2022-12-08T12:01:25.502Z,98611.91
2022-12-08T12:03:59.709Z,98610.41
2022-12-08T12:06:53.104Z,98607.81
2022-12-08T12:09:54.847Z,98603.84
2022-12-08T12:12:51.532Z,98599.41
2022-12-08T12:15:44.082Z,98595.16
2022-12-08T12:18:17.221Z,98595.63
2022-12-08T12:20:49.654Z,98587.94
2022-12-08T12:23:42.462Z,98592.41
2022-12-08T12:26:20.556Z,98585.13
2022-12-08T12:29:16.081Z,98582.84
2022-12-08T12:31:43.524Z,98576.91
2022-12-08T12:34:33.339Z,98572.31
2022-12-08T12:37:10.458Z,98573.13
2022-12-08T12:39:51.997Z,98573.31
2022-12-08T12:42:44.440Z,98569.00
2022-12-08T12:45:16.940Z,98561.38
2022-12-08T12:47:56.641Z,98567.16
2022-12-08T12:50:41.631Z,98560.75
2022-12-08T12:53:17.232Z,98561.81
2022-12-08T12:55:57.156Z,98561.81
2022-12-08T12:58:29.770Z,98571.88
2022-12-08T13:01:08.773Z,98561.44
2022-12-08T13:03:35.407Z,98559.69
2022-12-08T13:06:01.944Z,98556.59
2022-12-08T13:08:28.441Z,98557.41
2022-12-08T13:11:09.723Z,98556.53
2022-12-08T13:13:55.243Z,98556.88
2022-12-08T13:16:25.012Z,98553.38
2022-12-08T13:19:02.436Z,98553.72
2022-12-08T13:21:35.027Z,98553.00
2022-12-08T13:24:10.463Z,98551.44
2022-12-08T13:26:44.088Z,98548.66
2022-12-08T13:29:26.419Z,98545.06
2022-12-08T13:31:57.016Z,98544.59
2022-12-08T13:34:31.573Z,98539.53
2022-12-08T13:36:57.883Z,98539.88
2022-12-08T13:39:28.097Z,98531.41
2022-12-08T13:42:02.559Z,98528.22
2022-12-08T13:47:34.250Z,98529.00
2022-12-08T13:56:59.374Z,98531.63
2022-12-08T13:58:46.292Z,98532.44
2022-12-08T14:01:22.323Z,98527.41
2022-12-08T14:04:28.397Z,98530.94
2022-12-08T14:06:43.048Z,98532.31
2022-12-08T14:09:22.049Z,98529.97
2022-12-08T14:11:55.391Z,98530.78
2022-12-08T14:15:01.231Z,98529.34
2022-12-08T14:17:22.914Z,98525.47
2022-12-08T14:20:22.598Z,98530.84
2022-12-08T14:22:50.273Z,98528.41
2022-12-08T14:25:17.597Z,98533.72
2022-12-08T14:27:44.598Z,98525.31
2022-12-08T14:30:14.252Z,98528.03
2022-12-08T14:32:55.629Z,98533.31
2022-12-08T14:35:26.860Z,98534.25
2022-12-08T14:38:15.572Z,98525.03
2022-12-08T14:41:02.127Z,98530.06
2022-12-08T14:43:30.551Z,98534.44
2022-12-08T14:46:02.703Z,98532.16
2022-12-08T14:48:36.186Z,98529.72
2022-12-08T14:51:03.667Z,98536.09
2022-12-08T14:53:41.905Z,98540.72
2022-12-08T14:56:15.264Z,98534.63
2022-12-08T14:58:41.812Z,98529.56
2022-12-08T15:01:10.306Z,98536.69
2022-12-08T15:03:36.807Z,98536.19
2022-12-08T15:06:05.474Z,98538.81
2022-12-08T15:08:32.432Z,98546.50
2022-12-08T15:11:24.753Z,98540.97
2022-12-08T15:13:53.208Z,98543.91
2022-12-08T15:16:42.930Z,98540.03
2022-12-08T15:19:40.738Z,98545.63
2022-12-08T15:22:21.531Z,98540.19
2022-12-08T15:24:47.974Z,98544.94
2022-12-08T15:27:25.049Z,98540.38
2022-12-08T15:29:52.171Z,98534.41
2022-12-08T15:32:22.872Z,98539.50
2022-12-08T15:34:49.787Z,98529.72
2022-12-08T15:37:26.862Z,98529.00
2022-12-08T15:39:53.378Z,98529.59
2022-12-08T15:42:19.909Z,98526.88
2022-12-08T15:44:46.348Z,98532.31
2022-12-08T15:47:20.674Z,98521.38
2022-12-08T15:49:49.448Z,98522.16
2022-12-08T15:52:18.134Z,98527.78
2022-12-08T15:54:44.522Z,98517.69
2022-12-08T15:57:43.770Z,98520.75
2022-12-08T16:00:30.358Z,98522.69
2022-12-08T16:05:55.350Z,98518.81
2022-12-08T16:08:46.303Z,98520.03
2022-12-08T16:12:04.368Z,98520.47
2022-12-08T16:15:38.794Z,98513.66
2022-12-08T16:17:13.703Z,98514.97
2022-12-08T16:19:40.289Z,98509.88
2022-12-08T16:24:53.249Z,98513.41
2022-12-08T16:30:17.888Z,98515.13
2022-12-08T16:32:44.292Z,98510.59
2022-12-08T16:35:12.228Z,98508.31
2022-12-08T16:37:38.922Z,98500.06
2022-12-08T16:40:06.329Z,98498.31
2022-12-08T16:42:40.352Z,98502.69
2022-12-08T16:45:07.340Z,98491.31
2022-12-08T16:47:34.395Z,98493.56
2022-12-08T16:50:00.875Z,98492.34
2022-12-08T16:52:27.276Z,98495.34
2022-12-08T16:54:53.659Z,98487.09
2022-12-08T16:57:20.074Z,98486.19
2022-12-08T16:59:46.485Z,98484.38
2022-12-08T17:02:16.417Z,98484.53
2022-12-08T17:04:43.280Z,98481.47
2022-12-08T17:07:09.797Z,98487.09
2022-12-08T17:09:36.186Z,98485.50
2022-12-08T17:12:04.306Z,98479.34
2022-12-08T17:14:33.824Z,98491.09
2022-12-08T17:17:00.326Z,98479.34
2022-12-08T17:19:26.769Z,98481.28
2022-12-08T17:21:53.147Z,98477.00
2022-12-08T17:24:22.210Z,98482.06
2022-12-08T17:26:48.985Z,98479.88
2022-12-08T17:29:15.356Z,98477.59
2022-12-08T17:31:41.792Z,98477.31
2022-12-08T17:34:11.110Z,98472.69
2022-12-08T17:36:37.546Z,98482.38
2022-12-08T17:39:04.086Z,98476.25
2022-12-08T17:41:31.050Z,98477.25
2022-12-08T17:43:57.619Z,98469.97
2022-12-08T17:46:24.432Z,98481.66
2022-12-08T17:48:50.954Z,98478.41
2022-12-08T17:51:17.546Z,98479.34
2022-12-08T17:53:44.500Z,98479.19
2022-12-08T17:56:17.338Z,98478.94
2022-12-08T17:58:43.834Z,98477.06
2022-12-08T18:01:10.989Z,98473.25
2022-12-08T18:03:38.103Z,98473.75
2022-12-08T18:06:06.684Z,98475.28
2022-12-08T18:08:33.145Z,98473.41
2022-12-08T18:10:59.668Z,98475.66
2022-12-08T18:13:26.397Z,98481.28
2022-12-08T18:15:52.818Z,98475.66
2022-12-08T18:18:19.863Z,98476.38
2022-12-08T18:20:46.599Z,98483.41
2022-12-08T18:23:13.755Z,98483.91
2022-12-08T18:25:40.224Z,98481.09
2022-12-08T18:28:06.654Z,98489.00
2022-12-08T18:30:33.102Z,98492.28
2022-12-08T18:32:59.644Z,98485.75
2022-12-08T18:35:26.925Z,98480.91
2022-12-08T18:37:53.295Z,98484.63
2022-12-08T18:40:19.777Z,98481.28
2022-12-08T18:42:46.236Z,98484.25
2022-12-08T18:45:14.068Z,98489.16
2022-12-08T18:47:42.143Z,98484.25
2022-12-08T18:50:09.553Z,98478.13
2022-12-08T18:52:35.967Z,98485.03
2022-12-08T18:55:06.986Z,98477.94
2022-12-08T18:57:34.834Z,98483.72
2022-12-08T19:00:02.586Z,98477.41
2022-12-08T19:02:29.323Z,98482.81
2022-12-08T19:04:55.987Z,98481.06
2022-12-08T19:07:22.519Z,98483.72
2022-12-08T19:09:48.923Z,98481.91
2022-12-08T19:12:15.322Z,98478.28
2022-12-08T19:14:41.909Z,98478.13
2022-12-08T19:17:08.421Z,98479.34
2022-12-08T19:19:35.481Z,98478.53
2022-12-08T19:22:02.228Z,98481.28
2022-12-08T19:24:28.892Z,98473.91
2022-12-08T19:26:55.269Z,98472.50
2022-12-08T19:29:21.778Z,98475.66
2022-12-08T19:31:48.263Z,98472.16
2022-12-08T19:34:15.258Z,98473.41
2022-12-08T19:36:43.026Z,98468.66
2022-12-08T19:39:54.717Z,98460.25
2022-12-08T19:42:39.850Z,98462.38
2022-12-08T19:45:14.535Z,98460.84
2022-12-08T19:47:41.317Z,98458.41
2022-12-08T19:50:28.139Z,98458.28
2022-12-08T19:52:54.784Z,98455.81
2022-12-08T19:55:23.447Z,98453.53
2022-12-08T19:57:50.992Z,98451.94
2022-12-08T20:00:18.303Z,98459.31
2022-12-08T20:02:45.445Z,98451.03
2022-12-08T20:05:12.439Z,98455.41
2022-12-08T20:07:39.084Z,98445.06
2022-12-08T20:10:09.222Z,98447.25
2022-12-08T20:12:35.708Z,98442.16
2022-12-08T20:15:02.427Z,98447.88
2022-12-08T20:17:28.822Z,98440.41
2022-12-08T20:19:55.225Z,98446.84
2022-12-08T20:22:21.654Z,98437.88
2022-12-08T20:24:56.461Z,98436.94
2022-12-08T20:27:26.128Z,98437.75
2022-12-08T20:29:52.610Z,98440.22
2022-12-08T20:32:19.074Z,98446.00
2022-12-08T20:34:45.472Z,98448.75
2022-12-08T20:37:11.923Z,98447.31
2022-12-08T20:39:38.352Z,98441.47
2022-12-08T20:42:04.887Z,98440.28
2022-12-08T20:44:31.353Z,98443.06
2022-12-08T20:46:57.787Z,98439.53
2022-12-08T20:49:27.254Z,98434.63
2022-12-08T20:51:56.425Z,98434.22
2022-12-08T20:54:22.884Z,98434.81
2022-12-08T20:56:49.388Z,98446.78
2022-12-08T20:59:17.138Z,98451.06
2022-12-08T21:01:43.835Z,98444.66
2022-12-08T21:04:14.496Z,98450.28
2022-12-08T21:06:41.230Z,98445.13
2022-12-08T21:09:08.662Z,98452.81
2022-12-08T21:11:35.895Z,98448.75
2022-12-08T21:14:02.481Z,98447.00
2022-12-08T21:16:29.295Z,98454.53
2022-12-08T21:18:56.206Z,98444.31
2022-12-08T21:21:22.713Z,98448.94
2022-12-08T21:23:49.237Z,98445.28
2022-12-08T21:26:17.860Z,98458.34
2022-12-08T21:28:44.757Z,98451.72
2022-12-08T21:31:13.922Z,98457.28
2022-12-08T21:33:40.600Z,98452.72
2022-12-08T21:36:11.081Z,98452.91
2022-12-08T21:38:38.858Z,98451.34
2022-12-08T21:41:36.897Z,98448.72
2022-12-08T21:44:04.795Z,98440.25
2022-12-08T21:46:31.553Z,98445.41
2022-12-08T21:48:58.352Z,98446.78
2022-12-08T21:51:24.951Z,98446.50
2022-12-08T21:53:51.683Z,98448.53
2022-12-08T21:56:18.145Z,98443.66
2022-12-08T21:58:44.645Z,98447.47
2022-12-08T22:01:11.970Z,98442.47
2022-12-08T22:03:39.701Z,98446.38
2022-12-08T22:06:07.468Z,98450.19
2022-12-08T22:08:34.291Z,98447.84
2022-12-08T22:11:00.857Z,98444.53
2022-12-08T22:13:27.716Z,98450.75
2022-12-08T22:15:58.381Z,98448.72
2022-12-08T22:18:25.425Z,98446.66
2022-12-08T22:20:52.357Z,98447.59
2022-12-08T22:23:19.488Z,98447.22
2022-12-08T22:25:46.040Z,98441.69
2022-12-08T22:28:12.586Z,98445.28
2022-12-08T22:30:39.505Z,98445.88
2022-12-08T22:33:06.249Z,98446.25
2022-12-08T22:35:32.692Z,98436.53
2022-12-08T22:37:59.096Z,98440.59
2022-12-08T22:40:25.509Z,98438.28
2022-12-08T22:42:51.874Z,98432.81
2022-12-08T22:45:18.351Z,98431.63
2022-12-08T22:47:44.911Z,98429.66
2022-12-08T22:50:11.598Z,98425.47
2022-12-08T22:52:38.221Z,98430.06
2022-12-08T22:55:05.077Z,98426.56
2022-12-08T22:57:31.555Z,98428.13
2022-12-08T22:59:58.098Z,98428.06
2022-12-08T23:02:24.521Z,98421.97
2022-12-08T23:04:51.184Z,98411.34
2022-12-08T23:07:17.806Z,98416.41
2022-12-08T23:09:44.435Z,98410.34
2022-12-08T23:12:11.120Z,98403.75
2022-12-08T23:14:37.512Z,98399.38
2022-12-08T23:17:04.036Z,98403.53
2022-12-08T23:19:30.687Z,98400.91
2022-12-08T23:21:57.431Z,98403.28
2022-12-08T23:24:24.086Z,98402.81
2022-12-08T23:26:50.534Z,98397.75
2022-12-08T23:29:16.955Z,98396.28
2022-12-08T23:31:43.566Z,98397.47
2022-12-08T23:34:10.751Z,98400.97
2022-12-08T23:36:37.195Z,98398.84
2022-12-08T23:39:04.665Z,98389.66
2022-12-08T23:41:31.039Z,98393.75
2022-12-08T23:43:58.184Z,98391.00
2022-12-08T23:46:24.793Z,98393.97
2022-12-08T23:48:51.511Z,98391.38
2022-12-08T23:51:18.444Z,98384.56
2022-12-08T23:53:45.061Z,98383.78
2022-12-08T23:56:13.650Z,98382.56
2022-12-08T23:58:40.659Z,98382.06
